sensor_id;sensor_type;location;lat;lon;timestamp;temperature;humidity
29255;DHT22;16277;48.890;2.306;2024-02-26T00:04:48;13.30;99.90
29255;DHT22;16277;48.890;2.306;2024-02-26T00:19:55;13.30;99.90
29255;DHT22;16277;48.890;2.306;2024-02-26T00:35:00;13.40;99.90
29255;DHT22;16277;48.890;2.306;2024-02-26T00:50:05;13.50;99.90
29255;DHT22;16277;48.890;2.306;2024-02-26T01:05:10;13.60;99.90
29255;DHT22;16277;48.890;2.306;2024-02-26T01:20:14;13.60;99.90
29255;DHT22;16277;48.890;2.306;2024-02-26T01:35:19;13.70;99.90
29255;DHT22;16277;48.890;2.306;2024-02-26T01:50:23;13.80;99.90
29255;DHT22;16277;48.890;2.306;2024-02-26T02:05:28;13.70;99.90
29255;DHT22;16277;48.890;2.306;2024-02-26T02:20:33;13.80;99.90
29255;DHT22;16277;48.890;2.306;2024-02-26T02:35:38;13.50;99.90
29255;DHT22;16277;48.890;2.306;2024-02-26T02:50:43;13.80;99.90
29255;DHT22;16277;48.890;2.306;2024-02-26T03:05:47;13.70;99.90
29255;DHT22;16277;48.890;2.306;2024-02-26T03:20:52;13.80;99.90
29255;DHT22;16277;48.890;2.306;2024-02-26T03:35:56;13.90;99.90
29255;DHT22;16277;48.890;2.306;2024-02-26T03:51:01;13.80;99.90
29255;DHT22;16277;48.890;2.306;2024-02-26T04:06:08;13.90;99.90
29255;DHT22;16277;48.890;2.306;2024-02-26T04:21:13;13.80;99.90
29255;DHT22;16277;48.890;2.306;2024-02-26T04:36:17;13.70;99.90
29255;DHT22;16277;48.890;2.306;2024-02-26T04:51:22;13.80;99.90
29255;DHT22;16277;48.890;2.306;2024-02-26T05:06:26;13.80;99.90
29255;DHT22;16277;48.890;2.306;2024-02-26T05:21:31;13.80;99.90
29255;DHT22;16277;48.890;2.306;2024-02-26T05:36:37;13.80;99.90
29255;DHT22;16277;48.890;2.306;2024-02-26T05:51:42;13.80;99.90
29255;DHT22;16277;48.890;2.306;2024-02-26T06:06:46;13.90;99.90
29255;DHT22;16277;48.890;2.306;2024-02-26T06:21:51;13.80;99.90
29255;DHT22;16277;48.890;2.306;2024-02-26T06:36:55;13.90;99.90
29255;DHT22;16277;48.890;2.306;2024-02-26T06:52:00;13.90;99.90
29255;DHT22;16277;48.890;2.306;2024-02-26T07:07:05;13.90;99.90
29255;DHT22;16277;48.890;2.306;2024-02-26T07:22:09;14.00;99.90
29255;DHT22;16277;48.890;2.306;2024-02-26T07:37:14;14.00;99.90
29255;DHT22;16277;48.890;2.306;2024-02-26T07:52:18;14.00;99.90
29255;DHT22;16277;48.890;2.306;2024-02-26T08:07:23;14.20;99.90
29255;DHT22;16277;48.890;2.306;2024-02-26T08:22:27;14.20;99.90
29255;DHT22;16277;48.890;2.306;2024-02-26T08:37:31;14.20;99.90
29255;DHT22;16277;48.890;2.306;2024-02-26T08:52:36;14.00;99.90
29255;DHT22;16277;48.890;2.306;2024-02-26T09:07:40;14.20;99.90
29255;DHT22;16277;48.890;2.306;2024-02-26T09:22:45;13.80;99.90
29255;DHT22;16277;48.890;2.306;2024-02-26T09:37:49;14.00;99.90
29255;DHT22;16277;48.890;2.306;2024-02-26T09:52:54;14.10;99.90
29255;DHT22;16277;48.890;2.306;2024-02-26T10:08:01;14.30;99.90
29255;DHT22;16277;48.890;2.306;2024-02-26T10:23:06;14.40;99.90
29255;DHT22;16277;48.890;2.306;2024-02-26T10:38:10;14.40;99.90
29255;DHT22;16277;48.890;2.306;2024-02-26T10:53:17;14.60;99.90
29255;DHT22;16277;48.890;2.306;2024-02-26T11:08:23;14.40;99.90
29255;DHT22;16277;48.890;2.306;2024-02-26T11:23:28;14.70;99.90
29255;DHT22;16277;48.890;2.306;2024-02-26T11:38:33;13.60;99.90
29255;DHT22;16277;48.890;2.306;2024-02-26T11:53:46;13.60;99.90
29255;DHT22;16277;48.890;2.306;2024-02-26T12:08:51;13.30;99.90
29255;DHT22;16277;48.890;2.306;2024-02-26T12:23:55;13.40;99.90
29255;DHT22;16277;48.890;2.306;2024-02-26T12:39:00;12.90;99.90
29255;DHT22;16277;48.890;2.306;2024-02-26T12:54:05;13.30;99.90
29255;DHT22;16277;48.890;2.306;2024-02-26T13:09:12;12.30;99.90
29255;DHT22;16277;48.890;2.306;2024-02-26T13:24:20;12.30;99.90
29255;DHT22;16277;48.890;2.306;2024-02-26T13:39:26;12.30;99.90
29255;DHT22;16277;48.890;2.306;2024-02-26T13:54:31;11.70;99.90
29255;DHT22;16277;48.890;2.306;2024-02-26T14:09:36;12.50;99.90
29255;DHT22;16277;48.890;2.306;2024-02-26T14:24:52;12.20;99.90
29255;DHT22;16277;48.890;2.306;2024-02-26T14:39:56;11.90;99.90
29255;DHT22;16277;48.890;2.306;2024-02-26T14:55:00;11.80;99.90
29255;DHT22;16277;48.890;2.306;2024-02-26T15:10:06;11.90;99.90
29255;DHT22;16277;48.890;2.306;2024-02-26T15:25:14;12.10;99.90
29255;DHT22;16277;48.890;2.306;2024-02-26T15:40:19;12.00;99.90
29255;DHT22;16277;48.890;2.306;2024-02-26T15:55:24;11.70;99.90
29255;DHT22;16277;48.890;2.306;2024-02-26T16:10:29;10.90;99.90
29255;DHT22;16277;48.890;2.306;2024-02-26T16:25:34;11.60;99.90
29255;DHT22;16277;48.890;2.306;2024-02-26T16:40:40;11.30;99.90
29255;DHT22;16277;48.890;2.306;2024-02-26T16:55:45;10.40;99.90
29255;DHT22;16277;48.890;2.306;2024-02-26T17:10:50;11.20;99.90
29255;DHT22;16277;48.890;2.306;2024-02-26T17:25:54;11.30;99.90
29255;DHT22;16277;48.890;2.306;2024-02-26T17:40:59;11.20;99.90
29255;DHT22;16277;48.890;2.306;2024-02-26T17:56:04;11.20;99.90
29255;DHT22;16277;48.890;2.306;2024-02-26T18:11:09;11.30;99.90
29255;DHT22;16277;48.890;2.306;2024-02-26T18:26:15;11.40;99.90
29255;DHT22;16277;48.890;2.306;2024-02-26T18:41:24;10.80;99.90
29255;DHT22;16277;48.890;2.306;2024-02-26T18:56:29;11.40;99.90
29255;DHT22;16277;48.890;2.306;2024-02-26T19:11:33;11.00;99.90
29255;DHT22;16277;48.890;2.306;2024-02-26T19:26:40;10.70;99.90
29255;DHT22;16277;48.890;2.306;2024-02-26T19:41:44;11.40;99.90
29255;DHT22;16277;48.890;2.306;2024-02-26T19:56:49;10.70;99.90
29255;DHT22;16277;48.890;2.306;2024-02-26T20:11:54;12.00;99.90
29255;DHT22;16277;48.890;2.306;2024-02-26T20:27:00;11.20;99.90
29255;DHT22;16277;48.890;2.306;2024-02-26T20:42:05;11.80;99.90
29255;DHT22;16277;48.890;2.306;2024-02-26T20:57:10;11.00;99.90
29255;DHT22;16277;48.890;2.306;2024-02-26T21:12:16;11.50;99.90
29255;DHT22;16277;48.890;2.306;2024-02-26T21:27:22;11.30;99.90
29255;DHT22;16277;48.890;2.306;2024-02-26T21:42:26;11.40;99.90
29255;DHT22;16277;48.890;2.306;2024-02-26T21:57:31;11.50;99.90
29255;DHT22;16277;48.890;2.306;2024-02-26T22:12:36;11.70;99.90
29255;DHT22;16277;48.890;2.306;2024-02-26T22:27:40;10.90;99.90
29255;DHT22;16277;48.890;2.306;2024-02-26T22:42:45;11.20;99.90
29255;DHT22;16277;48.890;2.306;2024-02-26T22:57:49;11.30;99.90
29255;DHT22;16277;48.890;2.306;2024-02-26T23:12:54;11.40;99.90
29255;DHT22;16277;48.890;2.306;2024-02-26T23:27:59;11.80;99.90
29255;DHT22;16277;48.890;2.306;2024-02-26T23:43:03;11.60;99.90
29255;DHT22;16277;48.890;2.306;2024-02-26T23:58:08;11.30;99.90
